sensor_id;sensor_type;location;lat;lon;timestamp;P1;durP1;ratioP1;P2;durP2;ratioP2
6513;SDS011;3290;47.716;9.070;2023-04-25T00:01:02;4.23;;;2.50;;
6513;SDS011;3290;47.716;9.070;2023-04-25T00:03:29;5.50;;;3.00;;
6513;SDS011;3290;47.716;9.070;2023-04-25T00:05:55;6.73;;;2.57;;
6513;SDS011;3290;47.716;9.070;2023-04-25T00:08:21;3.00;;;2.30;;
6513;SDS011;3290;47.716;9.070;2023-04-25T00:10:47;4.80;;;2.77;;
6513;SDS011;3290;47.716;9.070;2023-04-25T00:13:13;7.30;;;2.63;;
6513;SDS011;3290;47.716;9.070;2023-04-25T00:15:39;4.73;;;3.00;;
6513;SDS011;3290;47.716;9.070;2023-04-25T00:18:06;5.20;;;3.10;;
6513;SDS011;3290;47.716;9.070;2023-04-25T00:20:32;6.77;;;2.60;;
6513;SDS011;3290;47.716;9.070;2023-04-25T00:22:57;3.83;;;2.23;;
6513;SDS011;3290;47.716;9.070;2023-04-25T00:25:22;5.43;;;2.87;;
6513;SDS011;3290;47.716;9.070;2023-04-25T00:27:48;3.30;;;1.97;;
6513;SDS011;3290;47.716;9.070;2023-04-25T00:30:13;2.90;;;2.10;;
6513;SDS011;3290;47.716;9.070;2023-04-25T00:32:39;4.70;;;2.00;;
6513;SDS011;3290;47.716;9.070;2023-04-25T00:35:05;3.57;;;1.87;;
6513;SDS011;3290;47.716;9.070;2023-04-25T00:37:30;4.13;;;1.90;;
6513;SDS011;3290;47.716;9.070;2023-04-25T00:39:57;3.27;;;2.13;;
6513;SDS011;3290;47.716;9.070;2023-04-25T00:42:23;6.20;;;2.40;;
6513;SDS011;3290;47.716;9.070;2023-04-25T00:44:49;9.90;;;2.10;;
6513;SDS011;3290;47.716;9.070;2023-04-25T00:47:17;6.07;;;2.27;;
6513;SDS011;3290;47.716;9.070;2023-04-25T00:49:42;6.53;;;2.07;;
6513;SDS011;3290;47.716;9.070;2023-04-25T00:52:08;6.67;;;2.67;;
6513;SDS011;3290;47.716;9.070;2023-04-25T00:54:33;5.30;;;2.40;;
6513;SDS011;3290;47.716;9.070;2023-04-25T00:56:58;5.67;;;2.10;;
6513;SDS011;3290;47.716;9.070;2023-04-25T00:59:25;6.63;;;2.50;;
6513;SDS011;3290;47.716;9.070;2023-04-25T01:01:52;2.57;;;1.70;;
6513;SDS011;3290;47.716;9.070;2023-04-25T01:04:17;2.90;;;2.23;;
6513;SDS011;3290;47.716;9.070;2023-04-25T01:06:42;4.67;;;2.83;;
6513;SDS011;3290;47.716;9.070;2023-04-25T01:09:08;6.30;;;2.10;;
6513;SDS011;3290;47.716;9.070;2023-04-25T01:11:34;2.57;;;2.00;;
6513;SDS011;3290;47.716;9.070;2023-04-25T01:14:00;4.63;;;2.33;;
6513;SDS011;3290;47.716;9.070;2023-04-25T01:16:27;3.37;;;2.30;;
6513;SDS011;3290;47.716;9.070;2023-04-25T01:18:52;3.30;;;2.43;;
6513;SDS011;3290;47.716;9.070;2023-04-25T01:21:19;2.73;;;1.93;;
6513;SDS011;3290;47.716;9.070;2023-04-25T01:23:45;9.77;;;2.90;;
6513;SDS011;3290;47.716;9.070;2023-04-25T01:26:11;10.60;;;2.10;;
6513;SDS011;3290;47.716;9.070;2023-04-25T01:28:37;6.33;;;2.23;;
6513;SDS011;3290;47.716;9.070;2023-04-25T01:31:06;5.73;;;2.17;;
6513;SDS011;3290;47.716;9.070;2023-04-25T01:33:31;3.83;;;3.00;;
6513;SDS011;3290;47.716;9.070;2023-04-25T01:35:56;4.10;;;2.17;;
6513;SDS011;3290;47.716;9.070;2023-04-25T01:38:22;3.20;;;2.80;;
6513;SDS011;3290;47.716;9.070;2023-04-25T01:40:48;4.40;;;2.57;;
6513;SDS011;3290;47.716;9.070;2023-04-25T01:43:15;5.43;;;2.63;;
6513;SDS011;3290;47.716;9.070;2023-04-25T01:45:41;7.77;;;2.60;;
6513;SDS011;3290;47.716;9.070;2023-04-25T01:48:07;2.47;;;2.27;;
6513;SDS011;3290;47.716;9.070;2023-04-25T01:50:33;5.67;;;2.77;;
6513;SDS011;3290;47.716;9.070;2023-04-25T01:52:59;5.73;;;2.50;;
6513;SDS011;3290;47.716;9.070;2023-04-25T01:55:25;7.20;;;2.47;;
6513;SDS011;3290;47.716;9.070;2023-04-25T01:57:50;3.67;;;2.80;;
6513;SDS011;3290;47.716;9.070;2023-04-25T02:00:15;4.03;;;2.30;;
6513;SDS011;3290;47.716;9.070;2023-04-25T02:02:41;3.80;;;2.60;;
6513;SDS011;3290;47.716;9.070;2023-04-25T02:05:07;2.90;;;2.10;;
6513;SDS011;3290;47.716;9.070;2023-04-25T02:07:32;4.50;;;2.90;;
6513;SDS011;3290;47.716;9.070;2023-04-25T02:09:57;5.73;;;3.00;;
6513;SDS011;3290;47.716;9.070;2023-04-25T02:12:23;6.00;;;3.00;;
6513;SDS011;3290;47.716;9.070;2023-04-25T02:14:51;6.07;;;3.00;;
6513;SDS011;3290;47.716;9.070;2023-04-25T02:17:16;6.80;;;3.00;;
6513;SDS011;3290;47.716;9.070;2023-04-25T02:19:42;6.40;;;3.07;;
6513;SDS011;3290;47.716;9.070;2023-04-25T02:22:08;5.80;;;3.57;;
6513;SDS011;3290;47.716;9.070;2023-04-25T02:24:33;5.80;;;3.30;;
6513;SDS011;3290;47.716;9.070;2023-04-25T02:26:59;5.63;;;3.20;;
6513;SDS011;3290;47.716;9.070;2023-04-25T02:29:25;4.73;;;3.40;;
6513;SDS011;3290;47.716;9.070;2023-04-25T02:31:50;3.50;;;2.73;;
6513;SDS011;3290;47.716;9.070;2023-04-25T02:34:16;7.80;;;2.90;;
6513;SDS011;3290;47.716;9.070;2023-04-25T02:36:41;6.60;;;3.50;;
6513;SDS011;3290;47.716;9.070;2023-04-25T02:39:06;5.03;;;3.37;;
6513;SDS011;3290;47.716;9.070;2023-04-25T02:41:32;12.03;;;4.47;;
6513;SDS011;3290;47.716;9.070;2023-04-25T02:43:57;7.90;;;3.50;;
6513;SDS011;3290;47.716;9.070;2023-04-25T02:46:22;4.37;;;2.93;;
6513;SDS011;3290;47.716;9.070;2023-04-25T02:48:48;4.50;;;3.00;;
6513;SDS011;3290;47.716;9.070;2023-04-25T02:51:13;5.67;;;3.23;;
6513;SDS011;3290;47.716;9.070;2023-04-25T02:53:41;8.77;;;4.20;;
6513;SDS011;3290;47.716;9.070;2023-04-25T02:56:06;8.90;;;3.77;;
6513;SDS011;3290;47.716;9.070;2023-04-25T02:58:31;9.03;;;3.03;;
6513;SDS011;3290;47.716;9.070;2023-04-25T03:00:57;4.90;;;3.50;;
6513;SDS011;3290;47.716;9.070;2023-04-25T03:03:22;6.60;;;4.10;;
6513;SDS011;3290;47.716;9.070;2023-04-25T03:05:51;6.70;;;3.53;;
6513;SDS011;3290;47.716;9.070;2023-04-25T03:08:17;5.13;;;3.33;;
6513;SDS011;3290;47.716;9.070;2023-04-25T03:10:43;6.37;;;3.47;;
6513;SDS011;3290;47.716;9.070;2023-04-25T03:13:09;6.17;;;3.50;;
6513;SDS011;3290;47.716;9.070;2023-04-25T03:15:35;11.33;;;3.47;;
6513;SDS011;3290;47.716;9.070;2023-04-25T03:18:00;4.70;;;3.30;;
6513;SDS011;3290;47.716;9.070;2023-04-25T03:20:26;6.53;;;3.43;;
6513;SDS011;3290;47.716;9.070;2023-04-25T03:22:51;7.17;;;3.43;;
6513;SDS011;3290;47.716;9.070;2023-04-25T03:25:16;6.37;;;3.10;;
6513;SDS011;3290;47.716;9.070;2023-04-25T03:27:42;7.73;;;3.57;;
6513;SDS011;3290;47.716;9.070;2023-04-25T03:30:07;3.60;;;3.03;;
6513;SDS011;3290;47.716;9.070;2023-04-25T03:32:33;6.70;;;3.40;;
6513;SDS011;3290;47.716;9.070;2023-04-25T03:34:59;6.40;;;3.63;;
6513;SDS011;3290;47.716;9.070;2023-04-25T03:37:25;7.20;;;3.23;;
6513;SDS011;3290;47.716;9.070;2023-04-25T03:39:50;4.93;;;3.67;;
6513;SDS011;3290;47.716;9.070;2023-04-25T03:42:15;3.63;;;3.27;;
6513;SDS011;3290;47.716;9.070;2023-04-25T03:44:41;4.90;;;3.40;;
6513;SDS011;3290;47.716;9.070;2023-04-25T03:47:06;4.20;;;3.30;;
6513;SDS011;3290;47.716;9.070;2023-04-25T03:49:32;6.20;;;3.97;;
6513;SDS011;3290;47.716;9.070;2023-04-25T03:51:59;5.47;;;3.83;;
6513;SDS011;3290;47.716;9.070;2023-04-25T03:54:25;5.90;;;3.37;;
6513;SDS011;3290;47.716;9.070;2023-04-25T03:56:50;10.73;;;3.47;;
6513;SDS011;3290;47.716;9.070;2023-04-25T03:59:16;4.13;;;2.80;;
6513;SDS011;3290;47.716;9.070;2023-04-25T04:01:42;3.80;;;3.20;;
6513;SDS011;3290;47.716;9.070;2023-04-25T04:04:07;4.43;;;3.07;;
6513;SDS011;3290;47.716;9.070;2023-04-25T04:06:32;5.10;;;3.30;;
6513;SDS011;3290;47.716;9.070;2023-04-25T04:08:58;7.50;;;3.53;;
6513;SDS011;3290;47.716;9.070;2023-04-25T04:11:23;9.03;;;3.30;;
6513;SDS011;3290;47.716;9.070;2023-04-25T04:13:49;4.90;;;3.37;;
6513;SDS011;3290;47.716;9.070;2023-04-25T04:16:14;7.73;;;4.50;;
6513;SDS011;3290;47.716;9.070;2023-04-25T04:18:40;4.43;;;3.20;;
6513;SDS011;3290;47.716;9.070;2023-04-25T04:21:05;3.70;;;3.07;;
6513;SDS011;3290;47.716;9.070;2023-04-25T04:23:30;4.27;;;3.30;;
6513;SDS011;3290;47.716;9.070;2023-04-25T04:25:56;4.17;;;2.90;;
6513;SDS011;3290;47.716;9.070;2023-04-25T04:28:21;9.60;;;3.57;;
6513;SDS011;3290;47.716;9.070;2023-04-25T04:30:47;9.03;;;3.70;;
6513;SDS011;3290;47.716;9.070;2023-04-25T04:33:12;11.37;;;3.33;;
6513;SDS011;3290;47.716;9.070;2023-04-25T04:35:40;4.63;;;3.77;;
6513;SDS011;3290;47.716;9.070;2023-04-25T04:38:06;7.10;;;3.27;;
6513;SDS011;3290;47.716;9.070;2023-04-25T04:40:32;4.47;;;3.30;;
6513;SDS011;3290;47.716;9.070;2023-04-25T04:42:57;9.37;;;3.07;;
6513;SDS011;3290;47.716;9.070;2023-04-25T04:45:23;5.80;;;3.30;;
6513;SDS011;3290;47.716;9.070;2023-04-25T04:47:48;4.20;;;3.50;;
6513;SDS011;3290;47.716;9.070;2023-04-25T04:50:15;9.43;;;4.10;;
6513;SDS011;3290;47.716;9.070;2023-04-25T04:52:41;11.90;;;3.90;;
6513;SDS011;3290;47.716;9.070;2023-04-25T04:55:06;4.20;;;3.60;;
6513;SDS011;3290;47.716;9.070;2023-04-25T04:57:33;7.10;;;3.87;;
6513;SDS011;3290;47.716;9.070;2023-04-25T04:59:59;6.53;;;4.27;;
6513;SDS011;3290;47.716;9.070;2023-04-25T05:02:25;4.67;;;3.33;;
6513;SDS011;3290;47.716;9.070;2023-04-25T05:04:51;7.30;;;4.80;;
6513;SDS011;3290;47.716;9.070;2023-04-25T05:07:17;15.20;;;3.77;;
6513;SDS011;3290;47.716;9.070;2023-04-25T05:09:43;6.80;;;4.40;;
6513;SDS011;3290;47.716;9.070;2023-04-25T05:12:08;6.63;;;4.00;;
6513;SDS011;3290;47.716;9.070;2023-04-25T05:14:34;6.73;;;3.90;;
6513;SDS011;3290;47.716;9.070;2023-04-25T05:16:59;7.70;;;4.10;;
6513;SDS011;3290;47.716;9.070;2023-04-25T05:19:25;5.50;;;4.10;;
6513;SDS011;3290;47.716;9.070;2023-04-25T05:21:51;8.80;;;4.50;;
6513;SDS011;3290;47.716;9.070;2023-04-25T05:24:17;9.13;;;4.67;;
6513;SDS011;3290;47.716;9.070;2023-04-25T05:26:42;9.70;;;4.53;;
6513;SDS011;3290;47.716;9.070;2023-04-25T05:29:07;8.30;;;3.80;;
6513;SDS011;3290;47.716;9.070;2023-04-25T05:31:33;6.80;;;4.20;;
6513;SDS011;3290;47.716;9.070;2023-04-25T05:33:58;9.10;;;5.37;;
6513;SDS011;3290;47.716;9.070;2023-04-25T05:36:23;8.57;;;4.37;;
6513;SDS011;3290;47.716;9.070;2023-04-25T05:38:49;8.83;;;4.30;;
6513;SDS011;3290;47.716;9.070;2023-04-25T05:41:14;7.00;;;4.40;;
6513;SDS011;3290;47.716;9.070;2023-04-25T05:43:40;8.33;;;4.07;;
6513;SDS011;3290;47.716;9.070;2023-04-25T05:46:10;6.00;;;4.67;;
6513;SDS011;3290;47.716;9.070;2023-04-25T05:48:35;10.70;;;6.20;;
6513;SDS011;3290;47.716;9.070;2023-04-25T05:51:01;6.40;;;4.97;;
6513;SDS011;3290;47.716;9.070;2023-04-25T05:53:26;5.50;;;4.20;;
6513;SDS011;3290;47.716;9.070;2023-04-25T05:55:52;4.90;;;4.37;;
6513;SDS011;3290;47.716;9.070;2023-04-25T05:58:17;9.23;;;4.37;;
6513;SDS011;3290;47.716;9.070;2023-04-25T06:00:42;7.40;;;4.40;;
6513;SDS011;3290;47.716;9.070;2023-04-25T06:03:08;7.13;;;4.60;;
6513;SDS011;3290;47.716;9.070;2023-04-25T06:05:34;5.13;;;3.90;;
6513;SDS011;3290;47.716;9.070;2023-04-25T06:08:00;5.83;;;3.60;;
6513;SDS011;3290;47.716;9.070;2023-04-25T06:10:26;6.30;;;4.33;;
6513;SDS011;3290;47.716;9.070;2023-04-25T06:12:51;10.63;;;5.40;;
6513;SDS011;3290;47.716;9.070;2023-04-25T06:15:17;7.93;;;3.37;;
6513;SDS011;3290;47.716;9.070;2023-04-25T06:17:42;4.20;;;3.80;;
6513;SDS011;3290;47.716;9.070;2023-04-25T06:20:08;9.73;;;4.63;;
6513;SDS011;3290;47.716;9.070;2023-04-25T06:22:34;6.83;;;3.47;;
6513;SDS011;3290;47.716;9.070;2023-04-25T06:24:59;10.60;;;4.33;;
6513;SDS011;3290;47.716;9.070;2023-04-25T06:27:25;10.40;;;4.27;;
6513;SDS011;3290;47.716;9.070;2023-04-25T06:29:50;14.63;;;4.30;;
6513;SDS011;3290;47.716;9.070;2023-04-25T06:32:16;21.77;;;4.27;;
6513;SDS011;3290;47.716;9.070;2023-04-25T06:34:43;9.70;;;5.10;;
6513;SDS011;3290;47.716;9.070;2023-04-25T06:37:08;7.87;;;4.23;;
6513;SDS011;3290;47.716;9.070;2023-04-25T06:39:34;7.40;;;3.50;;
6513;SDS011;3290;47.716;9.070;2023-04-25T06:41:59;5.13;;;3.23;;
6513;SDS011;3290;47.716;9.070;2023-04-25T06:44:25;5.90;;;2.93;;
6513;SDS011;3290;47.716;9.070;2023-04-25T06:46:51;5.27;;;2.67;;
6513;SDS011;3290;47.716;9.070;2023-04-25T06:49:16;5.00;;;2.97;;
6513;SDS011;3290;47.716;9.070;2023-04-25T06:51:42;4.13;;;2.60;;
6513;SDS011;3290;47.716;9.070;2023-04-25T06:54:07;11.40;;;3.90;;
6513;SDS011;3290;47.716;9.070;2023-04-25T06:56:32;9.70;;;2.93;;
6513;SDS011;3290;47.716;9.070;2023-04-25T06:58:58;7.43;;;2.90;;
6513;SDS011;3290;47.716;9.070;2023-04-25T07:01:25;7.20;;;3.13;;
6513;SDS011;3290;47.716;9.070;2023-04-25T07:03:50;8.93;;;2.43;;
6513;SDS011;3290;47.716;9.070;2023-04-25T07:06:16;6.43;;;2.90;;
6513;SDS011;3290;47.716;9.070;2023-04-25T07:08:41;6.97;;;2.90;;
6513;SDS011;3290;47.716;9.070;2023-04-25T07:11:06;6.80;;;2.97;;
6513;SDS011;3290;47.716;9.070;2023-04-25T07:13:32;6.63;;;2.57;;
6513;SDS011;3290;47.716;9.070;2023-04-25T07:15:57;6.30;;;3.17;;
6513;SDS011;3290;47.716;9.070;2023-04-25T07:18:23;12.70;;;8.87;;
6513;SDS011;3290;47.716;9.070;2023-04-25T07:20:48;8.20;;;3.30;;
6513;SDS011;3290;47.716;9.070;2023-04-25T07:23:13;8.17;;;3.40;;
6513;SDS011;3290;47.716;9.070;2023-04-25T07:25:39;6.50;;;2.53;;
6513;SDS011;3290;47.716;9.070;2023-04-25T07:28:04;4.60;;;2.73;;
6513;SDS011;3290;47.716;9.070;2023-04-25T07:30:29;5.10;;;2.77;;
6513;SDS011;3290;47.716;9.070;2023-04-25T07:32:55;3.77;;;2.60;;
6513;SDS011;3290;47.716;9.070;2023-04-25T07:35:21;4.00;;;2.70;;
6513;SDS011;3290;47.716;9.070;2023-04-25T07:37:46;4.00;;;2.40;;
6513;SDS011;3290;47.716;9.070;2023-04-25T07:40:11;5.00;;;3.37;;
6513;SDS011;3290;47.716;9.070;2023-04-25T07:42:37;5.70;;;3.50;;
6513;SDS011;3290;47.716;9.070;2023-04-25T07:45:02;6.03;;;2.90;;
6513;SDS011;3290;47.716;9.070;2023-04-25T07:47:28;3.57;;;2.67;;
6513;SDS011;3290;47.716;9.070;2023-04-25T07:49:53;7.27;;;2.80;;
6513;SDS011;3290;47.716;9.070;2023-04-25T07:52:19;5.97;;;2.93;;
6513;SDS011;3290;47.716;9.070;2023-04-25T07:54:44;3.63;;;2.70;;
6513;SDS011;3290;47.716;9.070;2023-04-25T07:57:10;4.93;;;2.27;;
6513;SDS011;3290;47.716;9.070;2023-04-25T07:59:35;6.40;;;3.23;;
6513;SDS011;3290;47.716;9.070;2023-04-25T08:02:01;3.97;;;2.73;;
6513;SDS011;3290;47.716;9.070;2023-04-25T08:04:27;6.80;;;2.67;;
6513;SDS011;3290;47.716;9.070;2023-04-25T08:06:52;4.20;;;2.10;;
6513;SDS011;3290;47.716;9.070;2023-04-25T08:09:21;3.50;;;2.63;;
6513;SDS011;3290;47.716;9.070;2023-04-25T08:11:47;2.63;;;2.43;;
6513;SDS011;3290;47.716;9.070;2023-04-25T08:14:12;4.77;;;2.73;;
6513;SDS011;3290;47.716;9.070;2023-04-25T08:16:38;2.67;;;2.10;;
6513;SDS011;3290;47.716;9.070;2023-04-25T08:19:04;4.70;;;2.20;;
6513;SDS011;3290;47.716;9.070;2023-04-25T08:21:30;3.50;;;2.20;;
6513;SDS011;3290;47.716;9.070;2023-04-25T08:23:56;4.60;;;2.53;;
6513;SDS011;3290;47.716;9.070;2023-04-25T08:26:23;3.10;;;2.33;;
6513;SDS011;3290;47.716;9.070;2023-04-25T08:28:49;6.30;;;2.20;;
6513;SDS011;3290;47.716;9.070;2023-04-25T08:31:14;4.70;;;2.90;;
6513;SDS011;3290;47.716;9.070;2023-04-25T08:33:40;2.80;;;2.33;;
6513;SDS011;3290;47.716;9.070;2023-04-25T08:36:05;4.60;;;2.90;;
6513;SDS011;3290;47.716;9.070;2023-04-25T08:38:31;3.60;;;2.50;;
6513;SDS011;3290;47.716;9.070;2023-04-25T08:40:56;3.67;;;2.40;;
6513;SDS011;3290;47.716;9.070;2023-04-25T08:43:24;12.80;;;2.93;;
6513;SDS011;3290;47.716;9.070;2023-04-25T08:45:50;5.63;;;2.67;;
6513;SDS011;3290;47.716;9.070;2023-04-25T08:48:19;5.17;;;3.30;;
6513;SDS011;3290;47.716;9.070;2023-04-25T08:50:49;7.40;;;2.80;;
6513;SDS011;3290;47.716;9.070;2023-04-25T08:53:17;5.37;;;2.80;;
6513;SDS011;3290;47.716;9.070;2023-04-25T08:55:46;3.50;;;3.20;;
6513;SDS011;3290;47.716;9.070;2023-04-25T08:58:13;5.37;;;3.40;;
6513;SDS011;3290;47.716;9.070;2023-04-25T09:00:39;7.60;;;3.10;;
6513;SDS011;3290;47.716;9.070;2023-04-25T09:03:05;2.83;;;2.50;;
6513;SDS011;3290;47.716;9.070;2023-04-25T09:05:32;5.80;;;2.97;;
6513;SDS011;3290;47.716;9.070;2023-04-25T09:07:57;4.63;;;3.63;;
6513;SDS011;3290;47.716;9.070;2023-04-25T09:10:23;6.03;;;3.83;;
6513;SDS011;3290;47.716;9.070;2023-04-25T09:18:26;3.60;;;1.73;;
6513;SDS011;3290;47.716;9.070;2023-04-25T09:20:56;5.53;;;1.83;;
6513;SDS011;3290;47.716;9.070;2023-04-25T09:23:23;6.53;;;1.73;;
6513;SDS011;3290;47.716;9.070;2023-04-25T09:25:49;3.47;;;1.73;;
6513;SDS011;3290;47.716;9.070;2023-04-25T09:28:16;4.63;;;2.00;;
6513;SDS011;3290;47.716;9.070;2023-04-25T09:30:47;4.90;;;2.90;;
6513;SDS011;3290;47.716;9.070;2023-04-25T09:33:13;5.60;;;1.83;;
6513;SDS011;3290;47.716;9.070;2023-04-25T09:35:47;3.03;;;1.83;;
6513;SDS011;3290;47.716;9.070;2023-04-25T09:38:18;2.93;;;1.47;;
6513;SDS011;3290;47.716;9.070;2023-04-25T09:40:44;1.80;;;1.63;;
6513;SDS011;3290;47.716;9.070;2023-04-25T09:43:20;2.93;;;1.70;;
6513;SDS011;3290;47.716;9.070;2023-04-25T09:45:50;1.87;;;1.77;;
6513;SDS011;3290;47.716;9.070;2023-04-25T09:48:18;2.20;;;1.50;;
6513;SDS011;3290;47.716;9.070;2023-04-25T09:53:28;2.40;;;1.40;;
6513;SDS011;3290;47.716;9.070;2023-04-25T09:55:53;5.13;;;1.63;;
6513;SDS011;3290;47.716;9.070;2023-04-25T09:58:20;3.70;;;2.10;;
6513;SDS011;3290;47.716;9.070;2023-04-25T10:00:47;1.83;;;1.67;;
6513;SDS011;3290;47.716;9.070;2023-04-25T10:03:13;8.23;;;1.60;;
6513;SDS011;3290;47.716;9.070;2023-04-25T10:05:40;2.37;;;2.17;;
6513;SDS011;3290;47.716;9.070;2023-04-25T10:08:06;2.00;;;1.70;;
6513;SDS011;3290;47.716;9.070;2023-04-25T10:10:33;2.20;;;1.83;;
6513;SDS011;3290;47.716;9.070;2023-04-25T10:13:02;5.53;;;1.83;;
6513;SDS011;3290;47.716;9.070;2023-04-25T10:15:29;1.43;;;1.27;;
6513;SDS011;3290;47.716;9.070;2023-04-25T10:17:55;2.30;;;1.63;;
6513;SDS011;3290;47.716;9.070;2023-04-25T10:20:22;1.67;;;1.30;;
6513;SDS011;3290;47.716;9.070;2023-04-25T10:22:47;1.87;;;1.50;;
6513;SDS011;3290;47.716;9.070;2023-04-25T10:25:13;1.23;;;1.07;;
6513;SDS011;3290;47.716;9.070;2023-04-25T10:27:39;1.33;;;1.23;;
6513;SDS011;3290;47.716;9.070;2023-04-25T10:30:13;1.30;;;1.20;;
6513;SDS011;3290;47.716;9.070;2023-04-25T10:32:41;2.20;;;1.40;;
6513;SDS011;3290;47.716;9.070;2023-04-25T10:35:14;1.53;;;1.10;;
6513;SDS011;3290;47.716;9.070;2023-04-25T10:38:31;1.80;;;1.20;;
6513;SDS011;3290;47.716;9.070;2023-04-25T10:40:39;3.80;;;1.10;;
6513;SDS011;3290;47.716;9.070;2023-04-25T10:46:02;1.50;;;1.10;;
6513;SDS011;3290;47.716;9.070;2023-04-25T10:48:37;1.30;;;1.10;;
6513;SDS011;3290;47.716;9.070;2023-04-25T10:51:11;1.20;;;1.10;;
6513;SDS011;3290;47.716;9.070;2023-04-25T10:53:43;3.10;;;2.80;;
6513;SDS011;3290;47.716;9.070;2023-04-25T10:56:19;1.50;;;1.30;;
6513;SDS011;3290;47.716;9.070;2023-04-25T10:58:46;1.90;;;1.47;;
6513;SDS011;3290;47.716;9.070;2023-04-25T11:01:12;3.73;;;1.37;;
6513;SDS011;3290;47.716;9.070;2023-04-25T11:03:42;1.20;;;1.10;;
6513;SDS011;3290;47.716;9.070;2023-04-25T11:06:20;3.40;;;1.47;;
6513;SDS011;3290;47.716;9.070;2023-04-25T11:08:50;1.27;;;1.00;;
6513;SDS011;3290;47.716;9.070;2023-04-25T11:11:19;1.40;;;1.13;;
6513;SDS011;3290;47.716;9.070;2023-04-25T11:13:51;1.30;;;1.00;;
6513;SDS011;3290;47.716;9.070;2023-04-25T11:16:16;1.13;;;1.03;;
6513;SDS011;3290;47.716;9.070;2023-04-25T11:18:43;1.03;;;0.90;;
6513;SDS011;3290;47.716;9.070;2023-04-25T11:21:09;1.57;;;0.80;;
6513;SDS011;3290;47.716;9.070;2023-04-25T11:23:35;1.33;;;1.03;;
6513;SDS011;3290;47.716;9.070;2023-04-25T11:26:02;1.33;;;1.23;;
6513;SDS011;3290;47.716;9.070;2023-04-25T11:28:28;1.13;;;0.90;;
6513;SDS011;3290;47.716;9.070;2023-04-25T11:30:53;0.80;;;0.80;;
6513;SDS011;3290;47.716;9.070;2023-04-25T11:33:22;1.17;;;0.80;;
6513;SDS011;3290;47.716;9.070;2023-04-25T11:35:49;2.07;;;1.00;;
6513;SDS011;3290;47.716;9.070;2023-04-25T11:38:14;2.07;;;1.43;;
6513;SDS011;3290;47.716;9.070;2023-04-25T11:40:40;1.00;;;0.90;;
6513;SDS011;3290;47.716;9.070;2023-04-25T11:43:05;0.90;;;0.80;;
6513;SDS011;3290;47.716;9.070;2023-04-25T11:45:32;0.80;;;0.70;;
6513;SDS011;3290;47.716;9.070;2023-04-25T11:47:57;1.30;;;0.90;;
6513;SDS011;3290;47.716;9.070;2023-04-25T11:50:22;1.20;;;0.80;;
6513;SDS011;3290;47.716;9.070;2023-04-25T11:52:48;0.97;;;0.80;;
6513;SDS011;3290;47.716;9.070;2023-04-25T11:55:14;0.80;;;0.80;;
6513;SDS011;3290;47.716;9.070;2023-04-25T11:57:45;0.80;;;0.70;;
6513;SDS011;3290;47.716;9.070;2023-04-25T12:02:46;3.10;;;1.00;;
6513;SDS011;3290;47.716;9.070;2023-04-25T12:05:13;0.90;;;0.80;;
6513;SDS011;3290;47.716;9.070;2023-04-25T12:07:42;1.00;;;0.80;;
6513;SDS011;3290;47.716;9.070;2023-04-25T12:10:08;0.70;;;0.70;;
6513;SDS011;3290;47.716;9.070;2023-04-25T12:12:36;0.93;;;0.80;;
6513;SDS011;3290;47.716;9.070;2023-04-25T12:15:15;0.80;;;0.70;;
6513;SDS011;3290;47.716;9.070;2023-04-25T12:17:44;1.17;;;0.83;;
6513;SDS011;3290;47.716;9.070;2023-04-25T12:20:18;2.07;;;0.73;;
6513;SDS011;3290;47.716;9.070;2023-04-25T12:22:46;1.97;;;1.40;;
6513;SDS011;3290;47.716;9.070;2023-04-25T12:25:12;1.63;;;1.20;;
6513;SDS011;3290;47.716;9.070;2023-04-25T12:28:15;1.50;;;1.20;;
6513;SDS011;3290;47.716;9.070;2023-04-25T12:30:54;1.73;;;1.00;;
6513;SDS011;3290;47.716;9.070;2023-04-25T12:33:28;2.90;;;1.40;;
6513;SDS011;3290;47.716;9.070;2023-04-25T12:35:54;0.93;;;0.80;;
6513;SDS011;3290;47.716;9.070;2023-04-25T12:38:21;1.30;;;0.70;;
6513;SDS011;3290;47.716;9.070;2023-04-25T12:40:50;1.30;;;0.90;;
6513;SDS011;3290;47.716;9.070;2023-04-25T12:43:16;1.00;;;0.77;;
6513;SDS011;3290;47.716;9.070;2023-04-25T12:45:42;1.57;;;0.73;;
6513;SDS011;3290;47.716;9.070;2023-04-25T12:48:08;7.07;;;1.20;;
6513;SDS011;3290;47.716;9.070;2023-04-25T12:50:33;1.13;;;0.80;;
6513;SDS011;3290;47.716;9.070;2023-04-25T12:52:59;1.40;;;0.80;;
6513;SDS011;3290;47.716;9.070;2023-04-25T12:55:24;2.60;;;0.80;;
6513;SDS011;3290;47.716;9.070;2023-04-25T12:57:50;1.20;;;0.80;;
6513;SDS011;3290;47.716;9.070;2023-04-25T13:00:16;1.37;;;0.90;;
6513;SDS011;3290;47.716;9.070;2023-04-25T13:02:44;3.03;;;1.20;;
6513;SDS011;3290;47.716;9.070;2023-04-25T13:05:09;1.17;;;1.00;;
6513;SDS011;3290;47.716;9.070;2023-04-25T13:07:36;1.40;;;1.00;;
6513;SDS011;3290;47.716;9.070;2023-04-25T13:10:01;1.47;;;1.23;;
6513;SDS011;3290;47.716;9.070;2023-04-25T13:12:27;3.10;;;1.70;;
6513;SDS011;3290;47.716;9.070;2023-04-25T13:14:53;2.20;;;1.40;;
6513;SDS011;3290;47.716;9.070;2023-04-25T13:17:18;1.80;;;1.10;;
6513;SDS011;3290;47.716;9.070;2023-04-25T13:19:44;2.50;;;1.17;;
6513;SDS011;3290;47.716;9.070;2023-04-25T13:22:09;1.00;;;0.90;;
6513;SDS011;3290;47.716;9.070;2023-04-25T13:24:35;3.10;;;0.97;;
6513;SDS011;3290;47.716;9.070;2023-04-25T13:27:01;6.00;;;2.00;;
6513;SDS011;3290;47.716;9.070;2023-04-25T13:29:26;2.63;;;1.30;;
6513;SDS011;3290;47.716;9.070;2023-04-25T13:31:52;2.17;;;1.30;;
6513;SDS011;3290;47.716;9.070;2023-04-25T13:34:17;1.07;;;0.97;;
6513;SDS011;3290;47.716;9.070;2023-04-25T13:36:42;2.10;;;1.27;;
6513;SDS011;3290;47.716;9.070;2023-04-25T13:39:08;1.70;;;0.97;;
6513;SDS011;3290;47.716;9.070;2023-04-25T13:41:34;1.10;;;1.00;;
6513;SDS011;3290;47.716;9.070;2023-04-25T13:44:00;4.80;;;1.33;;
6513;SDS011;3290;47.716;9.070;2023-04-25T13:46:26;5.90;;;1.17;;
6513;SDS011;3290;47.716;9.070;2023-04-25T13:48:51;1.20;;;1.10;;
6513;SDS011;3290;47.716;9.070;2023-04-25T13:51:17;1.50;;;0.90;;
6513;SDS011;3290;47.716;9.070;2023-04-25T13:53:43;3.23;;;1.20;;
6513;SDS011;3290;47.716;9.070;2023-04-25T13:56:09;1.83;;;1.07;;
6513;SDS011;3290;47.716;9.070;2023-04-25T13:58:36;1.93;;;1.17;;
6513;SDS011;3290;47.716;9.070;2023-04-25T14:01:01;1.47;;;1.20;;
6513;SDS011;3290;47.716;9.070;2023-04-25T14:03:28;1.40;;;1.00;;
6513;SDS011;3290;47.716;9.070;2023-04-25T14:05:54;1.73;;;1.00;;
6513;SDS011;3290;47.716;9.070;2023-04-25T14:08:20;1.33;;;1.23;;
6513;SDS011;3290;47.716;9.070;2023-04-25T14:10:45;2.87;;;1.00;;
6513;SDS011;3290;47.716;9.070;2023-04-25T14:13:11;1.00;;;0.90;;
6513;SDS011;3290;47.716;9.070;2023-04-25T14:15:36;1.87;;;1.43;;
6513;SDS011;3290;47.716;9.070;2023-04-25T14:18:02;2.80;;;1.30;;
6513;SDS011;3290;47.716;9.070;2023-04-25T14:20:27;1.30;;;1.20;;
6513;SDS011;3290;47.716;9.070;2023-04-25T14:22:53;1.47;;;1.33;;
6513;SDS011;3290;47.716;9.070;2023-04-25T14:25:20;1.90;;;1.60;;
6513;SDS011;3290;47.716;9.070;2023-04-25T14:27:46;2.40;;;1.23;;
6513;SDS011;3290;47.716;9.070;2023-04-25T14:30:15;4.13;;;1.40;;
6513;SDS011;3290;47.716;9.070;2023-04-25T14:32:43;1.80;;;1.30;;
6513;SDS011;3290;47.716;9.070;2023-04-25T14:35:09;1.70;;;1.30;;
6513;SDS011;3290;47.716;9.070;2023-04-25T14:37:35;2.70;;;1.90;;
6513;SDS011;3290;47.716;9.070;2023-04-25T14:40:00;2.83;;;2.00;;
6513;SDS011;3290;47.716;9.070;2023-04-25T14:42:25;2.90;;;1.63;;
6513;SDS011;3290;47.716;9.070;2023-04-25T14:44:51;2.50;;;1.90;;
6513;SDS011;3290;47.716;9.070;2023-04-25T14:47:16;1.73;;;1.40;;
6513;SDS011;3290;47.716;9.070;2023-04-25T14:49:42;2.43;;;1.40;;
6513;SDS011;3290;47.716;9.070;2023-04-25T14:52:07;1.90;;;1.30;;
6513;SDS011;3290;47.716;9.070;2023-04-25T14:54:33;1.83;;;1.30;;
6513;SDS011;3290;47.716;9.070;2023-04-25T14:56:58;0.97;;;0.90;;
6513;SDS011;3290;47.716;9.070;2023-04-25T14:59:23;2.10;;;1.30;;
6513;SDS011;3290;47.716;9.070;2023-04-25T15:01:49;1.87;;;1.30;;
6513;SDS011;3290;47.716;9.070;2023-04-25T15:04:15;2.03;;;1.30;;
6513;SDS011;3290;47.716;9.070;2023-04-25T15:06:42;1.23;;;1.13;;
6513;SDS011;3290;47.716;9.070;2023-04-25T15:09:07;5.30;;;1.70;;
6513;SDS011;3290;47.716;9.070;2023-04-25T15:11:33;3.77;;;1.10;;
6513;SDS011;3290;47.716;9.070;2023-04-25T15:13:59;2.70;;;1.30;;
6513;SDS011;3290;47.716;9.070;2023-04-25T15:16:24;1.20;;;1.00;;
6513;SDS011;3290;47.716;9.070;2023-04-25T15:18:50;1.90;;;1.07;;
6513;SDS011;3290;47.716;9.070;2023-04-25T15:21:15;1.50;;;1.20;;
6513;SDS011;3290;47.716;9.070;2023-04-25T15:23:41;2.00;;;1.20;;